sensor_id;sensor_type;location;lat;lon;timestamp;pressure;altitude;pressure_sealevel;temperature;humidity
76164;BME280;64897;50.816;4.422;2023-02-24T00:02:02;100720.72;;;19.44;55.35
76164;BME280;64897;50.816;4.422;2023-02-24T00:04:33;100719.88;;;19.44;54.65
76164;BME280;64897;50.816;4.422;2023-02-24T00:07:00;100715.41;;;19.44;58.60
76164;BME280;64897;50.816;4.422;2023-02-24T00:09:29;100712.09;;;19.42;56.78
76164;BME280;64897;50.816;4.422;2023-02-24T00:12:02;100696.19;;;19.42;57.95
76164;BME280;64897;50.816;4.422;2023-02-24T00:14:32;100694.53;;;19.41;59.32
76164;BME280;64897;50.816;4.422;2023-02-24T00:16:59;100688.38;;;19.41;59.86
76164;BME280;64897;50.816;4.422;2023-02-24T00:19:28;100693.88;;;19.39;59.55
76164;BME280;64897;50.816;4.422;2023-02-24T00:21:58;100694.69;;;19.40;59.55
76164;BME280;64897;50.816;4.422;2023-02-24T00:24:26;100695.69;;;19.39;59.97
76164;BME280;64897;50.816;4.422;2023-02-24T00:26:54;100680.91;;;19.36;59.77
76164;BME280;64897;50.816;4.422;2023-02-24T00:29:22;100688.19;;;19.34;60.26
76164;BME280;64897;50.816;4.422;2023-02-24T00:31:51;100690.69;;;19.35;60.27
76164;BME280;64897;50.816;4.422;2023-02-24T00:34:26;100689.00;;;19.34;60.38
76164;BME280;64897;50.816;4.422;2023-02-24T00:36:53;100684.72;;;19.33;60.45
76164;BME280;64897;50.816;4.422;2023-02-24T00:39:20;100675.94;;;19.33;60.74
76164;BME280;64897;50.816;4.422;2023-02-24T00:41:56;100676.75;;;19.33;61.13
76164;BME280;64897;50.816;4.422;2023-02-24T00:44:36;100672.63;;;19.31;61.03
76164;BME280;64897;50.816;4.422;2023-02-24T00:47:05;100665.47;;;19.31;60.60
76164;BME280;64897;50.816;4.422;2023-02-24T00:49:33;100662.03;;;19.31;61.11
76164;BME280;64897;50.816;4.422;2023-02-24T00:52:01;100658.34;;;19.32;60.45
76164;BME280;64897;50.816;4.422;2023-02-24T00:54:35;100660.34;;;19.30;61.21
76164;BME280;64897;50.816;4.422;2023-02-24T00:57:02;100661.19;;;19.30;59.86
76164;BME280;64897;50.816;4.422;2023-02-24T00:59:29;100654.22;;;19.29;59.25
76164;BME280;64897;50.816;4.422;2023-02-24T01:01:55;100647.09;;;19.30;59.69
76164;BME280;64897;50.816;4.422;2023-02-24T01:04:22;100645.44;;;19.29;59.10
76164;BME280;64897;50.816;4.422;2023-02-24T01:06:51;100648.91;;;19.29;59.51
76164;BME280;64897;50.816;4.422;2023-02-24T01:09:29;100646.13;;;19.31;57.40
76164;BME280;64897;50.816;4.422;2023-02-24T01:11:56;100644.44;;;19.30;57.32
76164;BME280;64897;50.816;4.422;2023-02-24T01:14:44;100639.16;;;19.30;55.96
76164;BME280;64897;50.816;4.422;2023-02-24T01:17:12;100643.47;;;19.31;56.41
76164;BME280;64897;50.816;4.422;2023-02-24T01:19:39;100642.47;;;19.32;57.75
76164;BME280;64897;50.816;4.422;2023-02-24T01:22:07;100636.19;;;19.33;56.16
76164;BME280;64897;50.816;4.422;2023-02-24T01:24:37;100635.34;;;19.32;55.64
76164;BME280;64897;50.816;4.422;2023-02-24T01:27:06;100638.81;;;19.33;55.85
76164;BME280;64897;50.816;4.422;2023-02-24T01:29:33;100637.84;;;19.34;57.86
76164;BME280;64897;50.816;4.422;2023-02-24T01:32:06;100630.88;;;19.33;57.50
76164;BME280;64897;50.816;4.422;2023-02-24T01:34:33;100631.72;;;19.33;55.50
76164;BME280;64897;50.816;4.422;2023-02-24T01:37:00;100624.59;;;19.34;55.76
76164;BME280;64897;50.816;4.422;2023-02-24T01:39:27;100629.06;;;19.33;57.22
76164;BME280;64897;50.816;4.422;2023-02-24T01:41:54;100617.63;;;19.33;57.15
76164;BME280;64897;50.816;4.422;2023-02-24T01:46:51;100612.31;;;19.33;57.05
76164;BME280;64897;50.816;4.422;2023-02-24T01:49:31;100607.03;;;19.33;58.08
76164;BME280;64897;50.816;4.422;2023-02-24T01:54:53;100611.66;;;19.31;57.16
76164;BME280;64897;50.816;4.422;2023-02-24T01:57:25;100615.13;;;19.31;58.40
76164;BME280;64897;50.816;4.422;2023-02-24T01:59:56;100602.06;;;19.30;58.22
76164;BME280;64897;50.816;4.422;2023-02-24T02:02:27;100603.72;;;19.31;58.46
76164;BME280;64897;50.816;4.422;2023-02-24T02:04:57;100605.69;;;19.29;57.52
76164;BME280;64897;50.816;4.422;2023-02-24T02:07:29;100596.75;;;19.30;58.21
76164;BME280;64897;50.816;4.422;2023-02-24T02:09:58;100601.22;;;19.29;58.70
76164;BME280;64897;50.816;4.422;2023-02-24T02:12:32;100602.06;;;19.30;57.74
76164;BME280;64897;50.816;4.422;2023-02-24T02:15:03;100601.22;;;19.29;59.08
76164;BME280;64897;50.816;4.422;2023-02-24T02:29:17;100582.00;;;19.27;55.78
76164;BME280;64897;50.816;4.422;2023-02-24T02:42:40;100548.22;;;19.29;57.46
76164;BME280;64897;50.816;4.422;2023-02-24T02:48:32;100540.25;;;19.29;55.69
76164;BME280;64897;50.816;4.422;2023-02-24T02:51:06;100541.09;;;19.30;55.66
76164;BME280;64897;50.816;4.422;2023-02-24T02:53:48;100534.13;;;19.29;56.14
76164;BME280;64897;50.816;4.422;2023-02-24T02:58:48;100527.84;;;19.30;55.99
76164;BME280;64897;50.816;4.422;2023-02-24T03:01:20;100521.56;;;19.31;56.34
76164;BME280;64897;50.816;4.422;2023-02-24T03:03:52;100521.56;;;19.31;58.62
76164;BME280;64897;50.816;4.422;2023-02-24T03:06:34;100522.53;;;19.30;57.55
76164;BME280;64897;50.816;4.422;2023-02-24T03:09:07;100516.41;;;19.29;56.58
76164;BME280;64897;50.816;4.422;2023-02-24T03:11:59;100511.28;;;19.28;57.68
76164;BME280;64897;50.816;4.422;2023-02-24T03:14:32;100507.81;;;19.27;57.07
76164;BME280;64897;50.816;4.422;2023-02-24T03:17:07;100508.78;;;19.26;56.71
76164;BME280;64897;50.816;4.422;2023-02-24T03:19:38;100508.66;;;19.28;57.74
76164;BME280;64897;50.816;4.422;2023-02-24T03:22:09;100509.44;;;19.28;58.26
76164;BME280;64897;50.816;4.422;2023-02-24T03:24:42;100520.03;;;19.28;57.52
76164;BME280;64897;50.816;4.422;2023-02-24T03:27:33;100518.56;;;19.26;57.83
76164;BME280;64897;50.816;4.422;2023-02-24T03:30:09;100521.22;;;19.26;59.12
76164;BME280;64897;50.816;4.422;2023-02-24T03:33:04;100518.56;;;19.26;58.49
76164;BME280;64897;50.816;4.422;2023-02-24T03:35:38;100516.94;;;19.25;58.53
76164;BME280;64897;50.816;4.422;2023-02-24T03:38:05;100502.84;;;19.24;58.00
76164;BME280;64897;50.816;4.422;2023-02-24T03:40:32;100508.16;;;19.24;57.84
76164;BME280;64897;50.816;4.422;2023-02-24T03:43:16;100506.31;;;19.25;57.82
76164;BME280;64897;50.816;4.422;2023-02-24T03:45:45;100498.38;;;19.25;56.28
76164;BME280;64897;50.816;4.422;2023-02-24T03:48:12;100500.00;;;19.26;57.04
76164;BME280;64897;50.816;4.422;2023-02-24T03:50:41;100495.53;;;19.26;56.53
76164;BME280;64897;50.816;4.422;2023-02-24T03:53:39;100484.13;;;19.26;55.43
76164;BME280;64897;50.816;4.422;2023-02-24T04:06:49;100479.66;;;19.26;57.80
76164;BME280;64897;50.816;4.422;2023-02-24T04:12:09;100479.81;;;19.25;57.84
76164;BME280;64897;50.816;4.422;2023-02-24T04:14:54;100478.16;;;19.24;57.52
76164;BME280;64897;50.816;4.422;2023-02-24T04:17:27;100477.19;;;19.25;58.37
76164;BME280;64897;50.816;4.422;2023-02-24T04:19:59;100469.38;;;19.23;57.72
76164;BME280;64897;50.816;4.422;2023-02-24T04:22:32;100473.03;;;19.22;58.00
76164;BME280;64897;50.816;4.422;2023-02-24T04:25:00;100473.84;;;19.23;57.49
76164;BME280;64897;50.816;4.422;2023-02-24T04:27:31;100456.31;;;19.22;58.68
76164;BME280;64897;50.816;4.422;2023-02-24T04:30:01;100463.44;;;19.21;57.70
76164;BME280;64897;50.816;4.422;2023-02-24T04:32:30;100466.06;;;19.21;56.64
76164;BME280;64897;50.816;4.422;2023-02-24T04:35:02;100459.94;;;19.21;57.38
76164;BME280;64897;50.816;4.422;2023-02-24T04:37:29;100453.66;;;19.22;55.38
76164;BME280;64897;50.816;4.422;2023-02-24T04:40:00;100440.41;;;19.22;55.29
76164;BME280;64897;50.816;4.422;2023-02-24T04:42:27;100443.72;;;19.24;54.59
76164;BME280;64897;50.816;4.422;2023-02-24T04:44:54;100437.44;;;19.25;54.19
76164;BME280;64897;50.816;4.422;2023-02-24T04:47:24;100428.31;;;19.27;54.60
76164;BME280;64897;50.816;4.422;2023-02-24T04:49:54;100425.47;;;19.29;55.78
76164;BME280;64897;50.816;4.422;2023-02-24T04:52:20;100424.50;;;19.30;55.76
76164;BME280;64897;50.816;4.422;2023-02-24T04:54:47;100425.00;;;19.33;54.96
76164;BME280;64897;50.816;4.422;2023-02-24T04:57:14;100423.97;;;19.34;54.62
76164;BME280;64897;50.816;4.422;2023-02-24T04:59:41;100423.84;;;19.36;54.65
76164;BME280;64897;50.816;4.422;2023-02-24T05:02:08;100415.69;;;19.38;54.49
76164;BME280;64897;50.816;4.422;2023-02-24T05:04:35;100416.53;;;19.38;54.71
76164;BME280;64897;50.816;4.422;2023-02-24T05:07:04;100419.19;;;19.38;54.99
76164;BME280;64897;50.816;4.422;2023-02-24T05:09:31;100411.22;;;19.38;54.09
76164;BME280;64897;50.816;4.422;2023-02-24T05:11:58;100404.13;;;19.39;55.46
76164;BME280;64897;50.816;4.422;2023-02-24T05:14:25;100403.28;;;19.38;54.18
76164;BME280;64897;50.816;4.422;2023-02-24T05:16:52;100408.56;;;19.38;55.31
76164;BME280;64897;50.816;4.422;2023-02-24T05:19:25;100407.63;;;19.39;55.02
76164;BME280;64897;50.816;4.422;2023-02-24T05:22:10;100401.66;;;19.37;54.38
76164;BME280;64897;50.816;4.422;2023-02-24T05:24:39;100403.28;;;19.38;55.42
76164;BME280;64897;50.816;4.422;2023-02-24T05:27:06;100401.66;;;19.37;54.36
76164;BME280;64897;50.816;4.422;2023-02-24T05:29:35;100401.66;;;19.37;54.74
76164;BME280;64897;50.816;4.422;2023-02-24T05:32:03;100394.69;;;19.36;54.09
76164;BME280;64897;50.816;4.422;2023-02-24T05:34:32;100395.66;;;19.35;53.95
76164;BME280;64897;50.816;4.422;2023-02-24T05:37:00;100405.28;;;19.36;55.73
76164;BME280;64897;50.816;4.422;2023-02-24T05:39:30;100391.19;;;19.35;55.38
76164;BME280;64897;50.816;4.422;2023-02-24T05:41:56;100382.41;;;19.35;54.86
76164;BME280;64897;50.816;4.422;2023-02-24T05:44:24;100377.13;;;19.35;55.04
76164;BME280;64897;50.816;4.422;2023-02-24T05:46:55;100370.97;;;19.34;55.67
76164;BME280;64897;50.816;4.422;2023-02-24T05:49:26;100370.19;;;19.34;58.03
76164;BME280;64897;50.816;4.422;2023-02-24T05:51:56;100367.69;;;19.32;57.90
76164;BME280;64897;50.816;4.422;2023-02-24T05:54:26;100365.88;;;19.33;56.57
76164;BME280;64897;50.816;4.422;2023-02-24T05:57:07;100366.00;;;19.31;55.90
76164;BME280;64897;50.816;4.422;2023-02-24T05:59:39;100364.19;;;19.32;57.44
76164;BME280;64897;50.816;4.422;2023-02-24T06:02:08;100373.16;;;19.31;56.75
76164;BME280;64897;50.816;4.422;2023-02-24T06:04:41;100372.47;;;19.29;58.48
76164;BME280;64897;50.816;4.422;2023-02-24T06:07:21;100376.16;;;19.28;57.54
76164;BME280;64897;50.816;4.422;2023-02-24T06:09:52;100366.53;;;19.27;58.00
76164;BME280;64897;50.816;4.422;2023-02-24T06:12:21;100366.53;;;19.27;58.91
76164;BME280;64897;50.816;4.422;2023-02-24T06:14:48;100367.53;;;19.26;59.06
76164;BME280;64897;50.816;4.422;2023-02-24T06:17:16;100371.19;;;19.25;58.69
76164;BME280;64897;50.816;4.422;2023-02-24T06:19:44;100359.75;;;19.24;58.79
76164;BME280;64897;50.816;4.422;2023-02-24T06:22:16;100366.72;;;19.25;58.07
76164;BME280;64897;50.816;4.422;2023-02-24T06:24:48;100367.22;;;19.21;59.50
76164;BME280;64897;50.816;4.422;2023-02-24T06:27:17;100353.97;;;19.21;59.59
76164;BME280;64897;50.816;4.422;2023-02-24T06:29:49;100359.25;;;19.21;59.65
76164;BME280;64897;50.816;4.422;2023-02-24T06:32:22;100354.16;;;19.19;59.81
76164;BME280;64897;50.816;4.422;2023-02-24T06:34:51;100349.31;;;19.23;58.89
76164;BME280;64897;50.816;4.422;2023-02-24T06:37:18;100343.69;;;19.26;57.31
76164;BME280;64897;50.816;4.422;2023-02-24T06:39:45;100350.81;;;19.25;56.14
76164;BME280;64897;50.816;4.422;2023-02-24T06:42:14;100356.13;;;19.25;57.83
76164;BME280;64897;50.816;4.422;2023-02-24T06:44:41;100357.94;;;19.25;58.78
76164;BME280;64897;50.816;4.422;2023-02-24T06:47:10;100362.41;;;19.24;57.52
76164;BME280;64897;50.816;4.422;2023-02-24T06:49:37;100358.94;;;19.24;58.42
76164;BME280;64897;50.816;4.422;2023-02-24T06:52:04;100353.63;;;19.24;56.87
76164;BME280;64897;50.816;4.422;2023-02-24T06:54:31;100349.16;;;19.24;56.51
76164;BME280;64897;50.816;4.422;2023-02-24T06:57:02;100342.88;;;19.25;56.15
76164;BME280;64897;50.816;4.422;2023-02-24T06:59:29;100343.19;;;19.30;55.98
76164;BME280;64897;50.816;4.422;2023-02-24T07:01:57;100350.94;;;19.32;56.83
76164;BME280;64897;50.816;4.422;2023-02-24T07:04:25;100343.69;;;19.34;56.47
76164;BME280;64897;50.816;4.422;2023-02-24T07:06:56;100335.38;;;19.37;56.05
76164;BME280;64897;50.816;4.422;2023-02-24T07:09:25;100344.97;;;19.38;56.89
76164;BME280;64897;50.816;4.422;2023-02-24T07:11:53;100345.84;;;19.39;56.48
76164;BME280;64897;50.816;4.422;2023-02-24T07:14:24;100333.41;;;19.39;55.46
76164;BME280;64897;50.816;4.422;2023-02-24T07:16:51;100330.78;;;19.39;55.12
76164;BME280;64897;50.816;4.422;2023-02-24T07:19:25;100339.53;;;19.40;55.22
76164;BME280;64897;50.816;4.422;2023-02-24T07:21:56;100327.09;;;19.40;55.20
76164;BME280;64897;50.816;4.422;2023-02-24T07:24:27;100335.06;;;19.40;54.86
76164;BME280;64897;50.816;4.422;2023-02-24T07:27:21;100330.78;;;19.39;54.94
76164;BME280;64897;50.816;4.422;2023-02-24T07:29:49;100330.44;;;19.42;57.31
76164;BME280;64897;50.816;4.422;2023-02-24T07:32:16;100324.78;;;19.45;58.95
76164;BME280;64897;50.816;4.422;2023-02-24T07:34:43;100321.47;;;19.43;55.33
76164;BME280;64897;50.816;4.422;2023-02-24T07:37:11;100317.16;;;19.42;55.15
76164;BME280;64897;50.816;4.422;2023-02-24T07:39:38;100310.22;;;19.41;54.71
76164;BME280;64897;50.816;4.422;2023-02-24T07:42:08;100302.25;;;19.41;56.21
76164;BME280;64897;50.816;4.422;2023-02-24T07:44:35;100305.09;;;19.40;55.21
76164;BME280;64897;50.816;4.422;2023-02-24T07:47:04;100306.91;;;19.39;54.91
76164;BME280;64897;50.816;4.422;2023-02-24T07:49:33;100302.44;;;19.40;54.96
76164;BME280;64897;50.816;4.422;2023-02-24T07:52:00;100304.25;;;19.39;54.65
76164;BME280;64897;50.816;4.422;2023-02-24T07:54:28;100301.75;;;19.38;54.92
76164;BME280;64897;50.816;4.422;2023-02-24T07:56:56;100302.56;;;19.38;54.62
76164;BME280;64897;50.816;4.422;2023-02-24T07:59:29;100296.97;;;19.41;57.50
76164;BME280;64897;50.816;4.422;2023-02-24T08:01:58;100290.00;;;19.40;55.54
76164;BME280;64897;50.816;4.422;2023-02-24T08:04:27;100296.31;;;19.39;56.21
76164;BME280;64897;50.816;4.422;2023-02-24T08:06:56;100291.97;;;19.38;54.50
76164;BME280;64897;50.816;4.422;2023-02-24T08:09:29;100286.66;;;19.38;55.42
76164;BME280;64897;50.816;4.422;2023-02-24T08:12:19;100283.06;;;19.39;55.99
76164;BME280;64897;50.816;4.422;2023-02-24T08:14:49;100292.84;;;19.39;56.45
76164;BME280;64897;50.816;4.422;2023-02-24T08:17:18;100291.13;;;19.38;55.33
76164;BME280;64897;50.816;4.422;2023-02-24T08:19:49;100291.13;;;19.38;57.79
76164;BME280;64897;50.816;4.422;2023-02-24T08:22:17;100285.19;;;19.35;55.82
76164;BME280;64897;50.816;4.422;2023-02-24T08:24:51;100281.06;;;19.33;57.04
76164;BME280;64897;50.816;4.422;2023-02-24T08:27:28;100274.94;;;19.32;55.80
76164;BME280;64897;50.816;4.422;2023-02-24T08:29:56;100269.81;;;19.31;57.04
76164;BME280;64897;50.816;4.422;2023-02-24T08:34:51;100262.13;;;18.97;52.95
76164;BME280;64897;50.816;4.422;2023-02-24T08:37:31;100269.34;;;18.64;52.24
76164;BME280;64897;50.816;4.422;2023-02-24T08:43:13;100251.28;;;18.44;51.46
76164;BME280;64897;50.816;4.422;2023-02-24T08:45:51;100248.13;;;18.40;49.25
